Aérodrome :
LOGIN :

S'inscrire | Disclaimer

   EN    FR    IT 

 










Légende :    VFR   VFR Marginal   IFR   IFR Intensif   IFR Très Intensif
Visi : 
Plafond : 
>= 8 km
>= 3000ft
5 à 8 km
1000 à 3000 ft
1500m à 5 km
500 à 1000 ft
800 à 1500m
200 à 500 ft
< 800m
< 200 ft
Symboles :   Orages  Brouillard  Fortes neiges  Fortes précipitations  Vent > 20 kt
SIGMETs :   Divers  Orages  Givrage  Turbulence  Onde Orograph.  Cendres Volcan.







- Altitude de l'aérodrome : 20 ft


EBFN - Koksijde

DERNIER METAR :
  • 131825Z 28014KT 9999 SCT010 BKN015 BKN040 08/06 Q0989 GRN GRN BECMG WHT

METARs EXPIRÉS :
  • 131810Z 27021G32KT 9999 SCT010 BKN015 BKN040 08/06 Q0990 GRN GRN BECMG WHT
  • 131803Z 26017G31KT 4000 -SHRA SCT010 BKN015 BKN040 07/06 Q0990 GRN GRN TEMPO YLO
  • 131744Z 21014KT 9999 FEW010 SCT020 BKN080 07/06 Q0989 WHT WHT TEMPO YLO
  • 131725Z 22016KT 9999 SCT010 BKN023 07/06 Q0990 GRN GRN TEMPO YLO
  • 131716Z 22017KT 9999 SCT010 BKN025 07/06 Q0990 GRN GRN TEMPO YLO
  • 131655Z 22024KT 3000 SHRA BKN008 BKN020 08/07 Q0991 YLO GRN TEMPO YLO
  • 131646Z 22022KT 3500 -SHRA BKN008 BKN020 08/07 Q0991 YLO GRN TEMPO YLO
  • 131625Z 20017KT 7000 -SHRA SCT008 BKN020 08/08 Q0991 GRN GRN TEMPO YLO
  • 131620Z 20014KT 7000 -SHRA SCT008 BKN020 08/08 Q0992 GRN GRN TEMPO YLO
  • 131603Z AUTO 20014KT 1900 RA OVC018/// 08/07 Q0992 YLO

TAF TAF EBFN
Valide du 13 à 19h jusqu'au 14 à 07h UTC


131541Z 1319/1407 24018G30KT 9999 FEW020 BKN060
PROB30
TEMPO 1319/1321 5000 -SHRA FEW012 SCT018 BKN050
Pas de NOTAMs connus pour ce terrain.
1 SIGMET publié pour la FIR Brussels (EBBU) :
 
Turbulence forte
EBBU SIGMET 03 VALID 131600/132000 EBBR
EBBU BRUSSELS FIR SEV TURB FCST W OF LINE N5130 E00500 - N5020 E00400 SFC/FL50 MOV E35KT INTSF=



MET'MAP, la Météo Aéronautique d'un coup d'oeil ! - Copyright ORBIFLY Décembre 2007 - Disclaimer

ORBIFLY MET'MAP TEAM :

Programmation & Développement : Alexandra Zaïnal
Conception & Développement : Baudouin d'Aumeries
Co-Programmation & Développement : Marc-Olivier Méhu
Soutien technique & logistique : Manuel Goepfert

Contact : metmap@orbifly.com




SOURCES & CREDITS :

   NOAA